createdAt,value
2022-09-10T00:00:28.289Z,15.800
2022-09-10T00:01:32.817Z,15.800
2022-09-10T00:02:24.475Z,15.800
2022-09-10T00:03:34.755Z,15.800
2022-09-10T00:04:24.373Z,15.800
2022-09-10T00:05:33.907Z,15.800
2022-09-10T00:06:28.621Z,15.800
2022-09-10T00:07:25.553Z,15.700
2022-09-10T00:08:20.938Z,15.700
2022-09-10T00:09:26.560Z,15.700
2022-09-10T00:10:26.789Z,15.700
2022-09-10T00:12:23.626Z,15.600
2022-09-10T00:13:21.665Z,15.600
2022-09-10T00:14:29.800Z,15.600
2022-09-10T00:15:32.276Z,15.600
2022-09-10T00:16:30.500Z,15.600
2022-09-10T00:17:23.071Z,15.600
2022-09-10T00:18:24.163Z,15.600
2022-09-10T00:19:34.911Z,15.500
2022-09-10T00:21:24.648Z,15.500
2022-09-10T00:22:21.589Z,15.500
2022-09-10T00:23:32.929Z,15.500
2022-09-10T00:24:28.736Z,15.400
2022-09-10T00:25:20.040Z,15.400
2022-09-10T00:26:30.981Z,15.400
2022-09-10T00:27:22.155Z,15.400
2022-09-10T00:28:25.248Z,15.400
2022-09-10T00:29:20.855Z,15.400
2022-09-10T00:30:23.278Z,15.400
2022-09-10T00:31:28.819Z,15.400
2022-09-10T00:32:27.696Z,15.400
2022-09-10T00:33:36.237Z,15.400
2022-09-10T00:34:35.405Z,15.400
2022-09-10T00:35:30.815Z,15.400
2022-09-10T00:36:27.046Z,15.400
2022-09-10T00:37:32.695Z,15.400
2022-09-10T00:38:26.970Z,15.400
2022-09-10T00:39:22.671Z,15.400
2022-09-10T00:40:21.277Z,15.400
2022-09-10T00:41:30.001Z,15.400
2022-09-10T00:43:23.998Z,15.300
2022-09-10T00:44:33.854Z,15.300
2022-09-10T00:45:28.968Z,15.300
2022-09-10T00:46:26.749Z,15.300
2022-09-10T00:47:26.901Z,15.200
2022-09-10T00:48:28.921Z,15.200
2022-09-10T00:49:27.291Z,15.200
2022-09-10T00:51:34.505Z,15.200
2022-09-10T00:52:34.445Z,15.200
2022-09-10T00:53:25.251Z,15.150
2022-09-10T00:54:22.329Z,15.100
2022-09-10T00:55:24.704Z,15.100
2022-09-10T00:56:24.950Z,15.100
2022-09-10T00:57:22.239Z,15.100
2022-09-10T00:58:22.075Z,15.100
2022-09-10T00:59:28.052Z,15.100
2022-09-10T01:00:32.120Z,15.050
2022-09-10T01:01:29.851Z,15.000
2022-09-10T01:02:39.266Z,15.000
2022-09-10T01:03:26.423Z,15.000
2022-09-10T01:04:29.358Z,15.000
2022-09-10T02:00:27.107Z,14.300
2022-09-10T02:01:37.075Z,14.300
2022-09-10T02:02:29.440Z,14.300
2022-09-10T02:03:25.493Z,14.300
2022-09-10T02:04:41.663Z,14.300
2022-09-10T02:05:32.585Z,14.300
2022-09-10T02:06:46.420Z,14.300
2022-09-10T02:07:25.475Z,14.300
2022-09-10T03:01:35.706Z,14.000
2022-09-10T03:02:29.693Z,14.000
2022-09-10T03:03:28.370Z,14.000
2022-09-10T03:04:26.552Z,14.000
2022-09-10T03:05:29.459Z,14.000
2022-09-10T03:07:34.021Z,14.000
2022-09-10T03:08:33.133Z,14.000
2022-09-10T03:09:25.057Z,14.000
2022-09-10T03:10:23.002Z,14.000
2022-09-10T03:11:28.671Z,14.000
2022-09-10T03:12:20.875Z,13.900
2022-09-10T03:13:28.211Z,13.900
2022-09-10T03:15:22.981Z,13.900
2022-09-10T03:16:26.799Z,13.900
2022-09-10T03:17:21.151Z,13.900
2022-09-10T03:18:31.461Z,13.900
2022-09-10T03:19:29.072Z,13.900
2022-09-10T03:20:23.008Z,13.900
2022-09-10T03:21:24.467Z,13.900
2022-09-10T03:22:27.041Z,13.900
2022-09-10T03:23:25.042Z,13.900
2022-09-10T03:24:22.436Z,13.900
2022-09-10T03:25:36.601Z,13.900
2022-09-10T03:26:20.136Z,13.800
2022-09-10T03:28:28.887Z,13.800
2022-09-10T03:29:20.123Z,13.800
2022-09-10T03:30:26.790Z,13.800
2022-09-10T03:31:23.017Z,13.800
2022-09-10T03:32:30.831Z,13.800
2022-09-10T03:33:24.390Z,13.800
2022-09-10T03:34:22.981Z,13.800
2022-09-10T03:35:34.522Z,13.800
2022-09-10T03:36:24.139Z,13.800
2022-09-10T03:37:24.902Z,13.800
2022-09-10T03:38:23.563Z,13.800
2022-09-10T03:39:33.606Z,13.800
2022-09-10T03:40:28.411Z,13.800
2022-09-10T03:41:31.182Z,13.800
2022-09-10T03:42:25.866Z,13.800
2022-09-10T03:43:30.864Z,13.700
2022-09-10T03:44:27.996Z,13.700
2022-09-10T03:46:31.454Z,13.700
2022-09-10T03:47:28.810Z,13.700
2022-09-10T03:48:26.039Z,13.700
2022-09-10T03:49:30.862Z,13.700
2022-09-10T03:51:26.586Z,13.700
2022-09-10T03:53:34.230Z,13.700
2022-09-10T03:54:26.903Z,13.700
2022-09-10T03:55:24.088Z,13.600
2022-09-10T03:56:34.465Z,13.600
2022-09-10T03:57:24.400Z,13.600
2022-09-10T03:58:28.787Z,13.600
2022-09-10T04:01:29.452Z,13.600
2022-09-10T04:02:22.911Z,13.600
2022-09-10T04:03:36.615Z,13.600
2022-09-10T04:05:21.674Z,13.500
2022-09-10T04:06:21.795Z,13.500
2022-09-10T04:07:34.227Z,13.500
2022-09-10T04:08:29.827Z,13.500
2022-09-10T04:09:24.747Z,13.500
2022-09-10T04:10:36.501Z,13.500
2022-09-10T04:11:31.471Z,13.500
2022-09-10T04:12:27.011Z,13.500
2022-09-10T04:13:23.199Z,13.500
2022-09-10T04:14:23.212Z,13.500
2022-09-10T04:15:27.165Z,13.400
2022-09-10T04:16:24.371Z,13.400
2022-09-10T04:17:48.292Z,13.400
2022-09-10T04:18:36.988Z,13.400
2022-09-10T04:19:26.841Z,13.400
2022-09-10T04:20:24.552Z,13.400
2022-09-10T04:21:31.708Z,13.400
2022-09-10T04:22:20.313Z,13.400
2022-09-10T04:23:24.310Z,13.400
2022-09-10T04:24:34.377Z,13.400
2022-09-10T04:25:29.341Z,13.400
2022-09-10T04:27:21.141Z,13.400
2022-09-10T04:28:20.818Z,13.400
2022-09-10T04:29:30.725Z,13.400
2022-09-10T04:30:23.413Z,13.400
2022-09-10T04:31:20.690Z,13.400
2022-09-10T04:32:34.462Z,13.400
2022-09-10T04:33:25.012Z,13.400
2022-09-10T04:34:22.253Z,13.400
2022-09-10T04:35:24.148Z,13.400
2022-09-10T04:36:31.012Z,13.400
2022-09-10T04:39:30.743Z,13.400
2022-09-10T04:40:24.965Z,13.400
2022-09-10T04:41:22.917Z,13.400
2022-09-10T04:42:30.809Z,13.400
2022-09-10T04:43:22.671Z,13.400
2022-09-10T04:44:24.756Z,13.400
2022-09-10T04:46:44.486Z,13.400
2022-09-10T04:47:27.361Z,13.300
2022-09-10T04:48:21.074Z,13.300
2022-09-10T04:49:22.734Z,13.300
2022-09-10T04:50:30.142Z,13.300
2022-09-10T04:51:25.562Z,13.300
2022-09-10T04:52:26.085Z,13.300
2022-09-10T04:53:28.780Z,13.300
2022-09-10T04:54:36.304Z,13.300
2022-09-10T04:55:23.131Z,13.300
2022-09-10T04:56:28.482Z,13.300
2022-09-10T04:57:29.505Z,13.300
2022-09-10T04:58:24.496Z,13.300
2022-09-10T04:59:26.491Z,13.300
2022-09-10T05:00:21.621Z,13.300
2022-09-10T05:01:24.961Z,13.300
2022-09-10T05:02:23.117Z,13.300
2022-09-10T05:03:29.864Z,13.300
2022-09-10T05:04:27.745Z,13.300
2022-09-10T05:05:22.560Z,13.300
2022-09-10T05:06:21.874Z,13.300
2022-09-10T05:07:25.622Z,13.300
2022-09-10T05:08:25.691Z,13.300
2022-09-10T05:09:24.145Z,13.300
2022-09-10T05:10:49.588Z,13.233
2022-09-10T05:11:27.285Z,13.200
2022-09-10T05:12:24.690Z,13.200
2022-09-10T05:13:29.417Z,13.200
2022-09-10T05:14:31.358Z,13.200
2022-09-10T05:16:49.320Z,13.200
2022-09-10T05:17:31.345Z,13.200
2022-09-10T05:18:21.236Z,13.200
2022-09-10T05:19:36.441Z,13.200
2022-09-10T05:20:29.425Z,13.200
2022-09-10T05:21:21.951Z,13.200
2022-09-10T05:22:27.372Z,13.200
2022-09-10T05:24:37.009Z,13.100
2022-09-10T05:25:28.623Z,13.100
2022-09-10T05:26:40.028Z,13.100
2022-09-10T05:27:32.431Z,13.100
2022-09-10T05:28:30.199Z,13.100
2022-09-10T05:29:29.240Z,13.100
2022-09-10T05:30:21.454Z,13.100
2022-09-10T05:31:41.513Z,13.100
2022-09-10T05:32:27.031Z,13.100
2022-09-10T05:33:44.730Z,13.100
2022-09-10T05:34:36.205Z,13.100
2022-09-10T05:35:33.675Z,13.100
2022-09-10T05:36:24.135Z,13.100
2022-09-10T05:37:27.873Z,13.100
2022-09-10T05:38:44.256Z,13.100
2022-09-10T05:39:24.979Z,13.100
2022-09-10T05:40:41.052Z,13.100
2022-09-10T05:41:41.167Z,13.100
2022-09-10T05:42:35.482Z,13.100
2022-09-10T05:43:28.462Z,13.100
2022-09-10T05:44:22.335Z,13.100
2022-09-10T05:45:26.203Z,13.100
2022-09-10T05:46:27.604Z,13.100
2022-09-10T05:47:23.556Z,13.100
2022-09-10T05:48:48.737Z,13.100
2022-09-10T05:49:28.935Z,13.100
2022-09-10T05:50:21.592Z,13.100
2022-09-10T05:51:27.789Z,13.100
2022-09-10T05:52:29.998Z,13.100
2022-09-10T05:53:35.822Z,13.100
2022-09-10T05:54:23.048Z,13.100
2022-09-10T05:55:37.918Z,13.100
2022-09-10T05:56:27.551Z,13.100
2022-09-10T05:57:32.555Z,13.100
2022-09-10T05:58:24.895Z,13.100
2022-09-10T05:59:22.674Z,13.100
2022-09-10T06:00:26.398Z,13.100
2022-09-10T06:01:26.818Z,13.100
2022-09-10T06:02:31.360Z,13.100
2022-09-10T06:03:49.156Z,13.100
2022-09-10T06:04:43.053Z,13.100
2022-09-10T06:05:24.102Z,13.200
2022-09-10T06:06:27.608Z,13.200
2022-09-10T06:07:25.154Z,13.200
2022-09-10T06:08:23.155Z,13.200
2022-09-10T06:09:49.415Z,13.200
2022-09-10T06:11:06.593Z,13.200
2022-09-10T06:11:42.181Z,13.250
2022-09-10T06:12:27.017Z,13.300
2022-09-10T06:13:31.489Z,13.300
2022-09-10T06:14:22.663Z,13.300
2022-09-10T06:15:23.840Z,13.400
2022-09-10T06:17:29.134Z,13.400
2022-09-10T06:18:21.243Z,13.400
2022-09-10T06:19:20.968Z,13.500
2022-09-10T06:20:34.538Z,13.500
2022-09-10T06:21:28.489Z,13.500
2022-09-10T06:22:25.734Z,13.500
2022-09-10T06:23:23.741Z,13.500
2022-09-10T06:24:24.493Z,13.500
2022-09-10T06:25:26.769Z,13.500
2022-09-10T06:26:21.122Z,13.600
2022-09-10T06:27:34.454Z,13.600
2022-09-10T06:28:29.556Z,13.600
2022-09-10T06:29:23.319Z,13.600
2022-09-10T06:30:24.865Z,13.600
2022-09-10T06:31:29.246Z,13.700
2022-09-10T06:32:29.377Z,13.700
2022-09-10T06:33:22.685Z,13.700
2022-09-10T06:34:21.258Z,13.700
2022-09-10T06:35:21.279Z,13.700
2022-09-10T06:36:24.556Z,13.800
2022-09-10T06:37:20.335Z,13.800
2022-09-10T06:38:26.318Z,13.800
2022-09-10T06:39:30.748Z,13.800
2022-09-10T06:40:24.894Z,13.800
2022-09-10T06:41:36.181Z,13.900
2022-09-10T06:42:28.762Z,13.900
2022-09-10T06:43:25.195Z,13.900
2022-09-10T06:44:24.552Z,13.900
2022-09-10T06:45:25.819Z,14.000
2022-09-10T06:47:02.296Z,14.000
2022-09-10T06:48:38.578Z,14.000
2022-09-10T06:48:49.657Z,14.000
2022-09-10T06:49:27.047Z,14.000
2022-09-10T06:50:24.303Z,14.100
2022-09-10T06:51:31.442Z,14.100
2022-09-10T06:52:25.498Z,14.100
2022-09-10T06:53:25.071Z,14.100
2022-09-10T06:54:23.032Z,14.100
2022-09-10T06:55:30.406Z,14.200
2022-09-10T06:56:26.943Z,14.200
2022-09-10T06:57:23.980Z,14.200
2022-09-10T06:58:30.121Z,14.200
2022-09-10T06:59:25.846Z,14.300
2022-09-10T07:00:28.530Z,14.300
2022-09-10T07:02:32.985Z,14.300
2022-09-10T07:03:21.980Z,14.300
2022-09-10T07:04:27.008Z,14.400
2022-09-10T07:05:39.646Z,14.400
2022-09-10T07:06:33.332Z,14.400
2022-09-10T07:07:29.783Z,14.400
2022-09-10T07:08:25.275Z,14.500
2022-09-10T07:10:22.539Z,14.500
2022-09-10T07:11:24.305Z,14.500
2022-09-10T07:12:38.337Z,14.600
2022-09-10T07:13:30.641Z,14.600
2022-09-10T07:14:36.117Z,14.600
2022-09-10T07:15:29.832Z,14.600
2022-09-10T07:16:22.797Z,14.600
2022-09-10T07:17:32.350Z,14.600
2022-09-10T07:18:22.820Z,14.700
2022-09-10T07:19:33.192Z,14.700
2022-09-10T07:20:22.858Z,14.700
2022-09-10T07:21:20.505Z,14.700
2022-09-10T07:22:21.424Z,14.800
2022-09-10T07:23:28.985Z,14.800
2022-09-10T07:24:29.451Z,14.800
2022-09-10T07:25:24.401Z,14.800
2022-09-10T07:26:31.351Z,14.833
2022-09-10T07:27:32.048Z,14.900
2022-09-10T07:28:25.490Z,14.900
2022-09-10T07:29:22.722Z,14.900
2022-09-10T07:30:22.726Z,14.900
2022-09-10T07:31:22.321Z,15.000
2022-09-10T07:32:23.353Z,15.000
2022-09-10T07:33:34.284Z,15.000
2022-09-10T07:34:31.419Z,15.000
2022-09-10T07:35:28.776Z,15.100
2022-09-10T07:36:22.845Z,15.100
2022-09-10T07:37:27.584Z,15.100
2022-09-10T07:38:27.255Z,15.100
2022-09-10T07:39:25.671Z,15.200
2022-09-10T07:40:34.734Z,15.200
2022-09-10T07:41:31.748Z,15.200
2022-09-10T07:42:25.225Z,15.200
2022-09-10T07:43:21.381Z,15.200
2022-09-10T07:44:31.151Z,15.300
2022-09-10T07:45:23.009Z,15.300
2022-09-10T07:46:23.860Z,15.300
2022-09-10T07:47:33.091Z,15.300
2022-09-10T07:48:23.249Z,15.400
2022-09-10T07:49:25.195Z,15.400
2022-09-10T07:50:23.779Z,15.400
2022-09-10T07:51:32.965Z,15.400
2022-09-10T07:52:28.308Z,15.400
2022-09-10T07:53:20.743Z,15.500
2022-09-10T07:54:19.857Z,15.500
2022-09-10T07:55:29.148Z,15.500
2022-09-10T07:56:30.137Z,15.500
2022-09-10T07:57:22.652Z,15.550
2022-09-10T07:58:31.217Z,15.600
2022-09-10T07:59:28.069Z,15.600
2022-09-10T08:00:27.894Z,15.600
2022-09-10T08:01:24.279Z,15.600
2022-09-10T08:02:29.733Z,15.600
2022-09-10T08:03:26.884Z,15.700
2022-09-10T08:04:23.965Z,15.700
2022-09-10T08:05:24.496Z,15.700
2022-09-10T08:06:29.861Z,15.700
2022-09-10T08:07:25.217Z,15.700
2022-09-10T08:08:23.939Z,15.800
2022-09-10T08:09:21.431Z,15.800
2022-09-10T08:10:25.039Z,15.800
2022-09-10T08:11:21.241Z,15.800
2022-09-10T08:12:32.288Z,15.800
2022-09-10T08:13:26.956Z,15.900
2022-09-10T08:14:25.793Z,15.900
2022-09-10T08:15:26.538Z,15.900
2022-09-10T08:16:21.631Z,15.900
2022-09-10T08:17:25.024Z,16.000
2022-09-10T08:18:20.946Z,16.000
2022-09-10T08:19:32.753Z,16.000
2022-09-10T08:20:26.852Z,16.000
2022-09-10T08:21:26.015Z,16.100
2022-09-10T08:22:28.834Z,16.100
2022-09-10T08:23:22.566Z,16.100
2022-09-10T08:25:22.664Z,16.100
2022-09-10T08:26:22.123Z,16.200
2022-09-10T08:27:29.281Z,16.200
2022-09-10T08:28:25.616Z,16.200
2022-09-10T08:29:29.170Z,16.200
2022-09-10T08:30:29.499Z,16.300
2022-09-10T08:31:19.773Z,16.300
2022-09-10T08:32:22.401Z,16.300
2022-09-10T08:33:23.849Z,16.300
2022-09-10T08:34:28.587Z,16.350
2022-09-10T08:35:23.727Z,16.400
2022-09-10T08:36:33.270Z,16.400
2022-09-10T08:37:30.854Z,16.400
2022-09-10T08:38:25.324Z,16.500
2022-09-10T08:39:23.674Z,16.500
2022-09-10T08:41:27.387Z,16.500
2022-09-10T08:42:25.777Z,16.533
2022-09-10T08:43:37.841Z,16.600
2022-09-10T08:44:22.006Z,16.600
2022-09-10T08:45:29.703Z,16.600
2022-09-10T08:46:27.203Z,16.600
2022-09-10T08:47:21.446Z,16.600
2022-09-10T08:48:28.815Z,16.700
2022-09-10T08:49:23.412Z,16.700
2022-09-10T08:50:25.848Z,16.700
2022-09-10T08:51:25.608Z,16.700
2022-09-10T08:52:27.491Z,16.700
2022-09-10T08:53:22.220Z,16.700
2022-09-10T08:54:25.007Z,16.700
2022-09-10T08:55:20.650Z,16.700
2022-09-10T08:56:24.918Z,16.700
2022-09-10T08:57:34.877Z,16.700
2022-09-10T08:58:29.266Z,16.800
2022-09-10T08:59:27.901Z,16.800
2022-09-10T09:00:21.870Z,16.800
2022-09-10T09:01:23.671Z,16.800
2022-09-10T09:02:47.371Z,16.800
2022-09-10T09:03:25.182Z,16.800
2022-09-10T09:04:37.278Z,16.800
2022-09-10T09:05:32.632Z,16.800
2022-09-10T09:06:25.439Z,16.800
2022-09-10T09:07:22.560Z,16.800
2022-09-10T09:08:27.808Z,16.900
2022-09-10T09:09:19.882Z,16.900
2022-09-10T09:10:37.436Z,16.900
2022-09-10T09:11:48.961Z,16.900
2022-09-10T09:12:29.082Z,16.900
2022-09-10T09:13:21.043Z,16.900
2022-09-10T09:14:37.431Z,16.900
2022-09-10T09:15:30.654Z,16.900
2022-09-10T09:16:25.252Z,16.900
2022-09-10T09:17:22.150Z,17.000
2022-09-10T09:18:25.322Z,17.000
2022-09-10T09:19:28.985Z,17.000
2022-09-10T09:20:23.972Z,17.000
2022-09-10T09:21:23.032Z,17.000
2022-09-10T09:22:35.848Z,17.000
2022-09-10T09:23:29.934Z,17.000
2022-09-10T09:24:20.999Z,17.000
2022-09-10T09:25:43.803Z,17.000
2022-09-10T09:26:28.813Z,17.000
2022-09-10T09:27:30.489Z,17.000
2022-09-10T09:28:47.249Z,17.000
2022-09-10T09:29:23.462Z,17.000
2022-09-10T09:30:40.005Z,17.000
2022-09-10T09:32:23.252Z,17.000
2022-09-10T09:33:46.126Z,17.000
2022-09-10T09:34:31.561Z,17.000
2022-09-10T09:35:25.410Z,17.000
2022-09-10T09:36:39.718Z,17.000
2022-09-10T09:37:43.046Z,17.000
2022-09-10T09:39:25.585Z,17.000
2022-09-10T09:40:22.457Z,17.000
2022-09-10T09:41:34.142Z,17.000
2022-09-10T09:42:21.815Z,17.000
2022-09-10T09:43:31.315Z,17.050
2022-09-10T09:44:31.372Z,17.100
2022-09-10T09:45:27.253Z,17.100
2022-09-10T09:46:23.371Z,17.100
2022-09-10T09:47:24.152Z,17.100
2022-09-10T09:48:25.498Z,17.100
2022-09-10T09:49:23.022Z,17.100
2022-09-10T09:50:34.583Z,17.100
2022-09-10T09:51:45.945Z,17.100
2022-09-10T09:52:29.524Z,17.200
2022-09-10T09:53:35.270Z,17.200
2022-09-10T09:55:23.892Z,17.200
2022-09-10T09:56:24.706Z,17.200
2022-09-10T09:57:32.880Z,17.200
2022-09-10T09:58:29.282Z,17.300
2022-09-10T09:59:23.497Z,17.300
2022-09-10T10:00:22.421Z,17.300
2022-09-10T10:01:33.513Z,17.300
2022-09-10T10:03:24.846Z,17.300
2022-09-10T10:04:32.904Z,17.300
2022-09-10T10:05:27.325Z,17.333
2022-09-10T10:06:24.980Z,17.400
2022-09-10T10:07:24.129Z,17.400
2022-09-10T10:08:31.805Z,17.400
2022-09-10T10:09:27.035Z,17.400
2022-09-10T10:10:22.749Z,17.400
2022-09-10T10:12:28.409Z,17.500
2022-09-10T10:13:23.622Z,17.500
2022-09-10T10:14:24.717Z,17.500
2022-09-10T10:15:29.033Z,17.500
2022-09-10T10:16:26.827Z,17.500
2022-09-10T10:17:27.631Z,17.600
2022-09-10T10:18:22.197Z,17.600
2022-09-10T10:19:28.848Z,17.600
2022-09-10T10:20:25.726Z,17.700
2022-09-10T10:21:31.223Z,17.700
2022-09-10T10:22:31.038Z,17.700
2022-09-10T10:23:31.152Z,17.800
2022-09-10T10:24:27.947Z,17.800
2022-09-10T10:25:26.884Z,17.800
2022-09-10T10:26:30.144Z,17.900
2022-09-10T10:27:23.237Z,17.900
2022-09-10T10:28:33.479Z,17.900
2022-09-10T10:29:20.015Z,18.000
2022-09-10T10:30:25.070Z,18.000
2022-09-10T10:31:25.461Z,18.000
2022-09-10T10:32:22.894Z,18.000
2022-09-10T10:33:21.561Z,18.000
2022-09-10T10:34:24.916Z,18.000
2022-09-10T10:35:35.830Z,18.000
2022-09-10T10:36:25.447Z,18.000
2022-09-10T10:37:26.038Z,18.000
2022-09-10T10:38:21.087Z,18.000
2022-09-10T10:39:29.507Z,18.100
2022-09-10T10:40:22.203Z,18.100
2022-09-10T10:41:23.165Z,18.100
2022-09-10T10:42:24.414Z,18.100
2022-09-10T10:43:26.191Z,18.100
2022-09-10T10:44:25.060Z,18.100
2022-09-10T10:45:23.663Z,18.100
2022-09-10T10:46:37.515Z,18.200
2022-09-10T10:48:27.251Z,18.200
2022-09-10T10:49:38.415Z,18.200
2022-09-10T10:50:29.497Z,18.200
2022-09-10T10:51:27.365Z,18.300
2022-09-10T10:52:20.997Z,18.300
2022-09-10T10:53:31.304Z,18.400
2022-09-10T10:54:24.358Z,18.400
2022-09-10T10:55:29.433Z,18.400
2022-09-10T10:57:37.043Z,18.500
2022-09-10T10:58:28.856Z,18.500
2022-09-10T10:59:24.071Z,18.500
2022-09-10T11:00:34.200Z,18.500
2022-09-10T11:01:28.260Z,18.500
2022-09-10T11:02:27.563Z,18.500
2022-09-10T11:03:22.635Z,18.600
2022-09-10T11:04:30.486Z,18.600
2022-09-10T11:05:24.511Z,18.600
2022-09-10T11:06:23.810Z,18.700
2022-09-10T11:07:32.891Z,18.700
2022-09-10T11:08:31.967Z,18.700
2022-09-10T11:09:23.425Z,18.700
2022-09-10T11:10:26.500Z,18.700
2022-09-10T11:12:28.501Z,18.800
2022-09-10T11:13:24.454Z,18.800
2022-09-10T11:14:31.254Z,18.800
2022-09-10T11:15:28.380Z,18.800
2022-09-10T11:16:20.351Z,18.800
2022-09-10T11:17:31.082Z,18.800
2022-09-10T11:18:22.912Z,18.900
2022-09-10T11:20:29.903Z,18.900
2022-09-10T11:21:33.356Z,18.900
2022-09-10T11:22:30.896Z,18.900
2022-09-10T11:23:27.295Z,18.900
2022-09-10T11:24:35.857Z,18.900
2022-09-10T11:27:25.236Z,18.900
2022-09-10T11:28:36.154Z,18.900
2022-09-10T11:29:28.123Z,18.900
2022-09-10T11:30:30.862Z,18.900
2022-09-10T11:31:39.524Z,18.900
2022-09-10T11:35:31.840Z,18.800
2022-09-10T11:36:29.799Z,18.800
2022-09-10T11:37:23.337Z,18.800
2022-09-10T11:38:36.055Z,18.800
2022-09-10T11:39:36.194Z,18.800
2022-09-10T11:42:33.374Z,18.800
2022-09-10T11:43:28.440Z,18.800
2022-09-10T11:44:24.540Z,18.800
2022-09-10T11:45:37.639Z,18.800
2022-09-10T11:46:30.403Z,18.800
2022-09-10T11:47:27.020Z,18.800
2022-09-10T11:48:27.083Z,18.800
2022-09-10T11:50:31.124Z,18.800
2022-09-10T11:51:27.978Z,18.800
2022-09-10T11:52:27.047Z,18.800
2022-09-10T11:53:32.312Z,18.800
2022-09-10T12:07:57.239Z,18.800
2022-09-10T12:08:04.972Z,18.800
2022-09-10T12:09:23.856Z,19.000
2022-09-10T12:10:22.952Z,19.100
2022-09-10T12:11:23.173Z,19.100
2022-09-10T12:13:34.664Z,19.100
2022-09-10T12:14:29.376Z,19.100
2022-09-10T12:15:27.504Z,19.100
2022-09-10T12:16:21.640Z,19.100
2022-09-10T12:17:25.943Z,19.100
2022-09-10T12:18:30.815Z,19.100
2022-09-10T12:20:34.202Z,19.200
2022-09-10T12:21:23.342Z,19.200
2022-09-10T12:22:25.301Z,19.200
2022-09-10T12:23:22.631Z,19.200
2022-09-10T12:24:31.704Z,19.300
2022-09-10T12:25:34.150Z,19.300
2022-09-10T12:28:26.114Z,19.300
2022-09-10T12:29:26.398Z,19.400
2022-09-10T12:30:23.019Z,19.400
2022-09-10T12:31:35.846Z,19.400
2022-09-10T12:32:29.680Z,19.400
2022-09-10T12:33:26.949Z,19.400
2022-09-10T12:34:41.251Z,19.400
2022-09-10T12:36:25.266Z,19.400
2022-09-10T12:37:25.480Z,19.300
2022-09-10T12:38:32.731Z,19.300
2022-09-10T12:39:24.876Z,19.300
2022-09-10T12:40:25.528Z,19.300
2022-09-10T12:41:28.270Z,19.300
2022-09-10T12:43:30.215Z,19.300
2022-09-10T12:44:26.152Z,19.300
2022-09-10T12:45:38.908Z,19.300
2022-09-10T12:46:30.856Z,19.300
2022-09-10T12:47:24.633Z,19.400
2022-09-10T12:48:31.140Z,19.400
2022-09-10T12:51:26.345Z,19.400
2022-09-10T12:52:35.291Z,19.400
2022-09-10T12:53:30.269Z,19.500
2022-09-10T12:54:27.934Z,19.500
2022-09-10T12:55:35.190Z,19.500
2022-09-10T12:58:24.265Z,19.600
2022-09-10T12:59:32.700Z,19.700
2022-09-10T13:00:31.740Z,19.700
2022-09-10T13:01:47.062Z,19.800
2022-09-10T13:06:33.427Z,19.800
2022-09-10T13:07:28.067Z,19.800
2022-09-10T13:08:25.192Z,19.800
2022-09-10T13:09:34.170Z,19.800
2022-09-10T13:10:30.540Z,19.800
2022-09-10T13:11:29.219Z,19.800
2022-09-10T13:13:31.326Z,19.800
2022-09-10T13:14:30.110Z,19.800
2022-09-10T13:15:24.271Z,19.800
2022-09-10T13:16:35.335Z,19.800
2022-09-10T13:17:31.585Z,19.800
2022-09-10T13:18:25.445Z,19.800
2022-09-10T13:19:25.775Z,19.800
2022-09-10T13:21:29.298Z,19.800
2022-09-10T13:22:23.430Z,19.800
2022-09-10T13:24:32.887Z,19.800
2022-09-10T13:25:21.854Z,19.800
2022-09-10T13:26:22.027Z,19.800
2022-09-10T13:27:20.717Z,19.900
2022-09-10T13:28:31.278Z,19.900
2022-09-10T13:29:23.494Z,19.900
2022-09-10T13:30:34.114Z,19.900
2022-09-10T13:31:31.673Z,19.900
2022-09-10T13:35:27.398Z,19.900
2022-09-10T13:36:23.394Z,19.900
2022-09-10T13:37:20.200Z,19.900
2022-09-10T13:38:30.796Z,19.900
2022-09-10T13:39:28.246Z,19.900
2022-09-10T13:40:24.445Z,19.900
2022-09-10T13:41:33.489Z,19.900
2022-09-10T13:42:32.393Z,19.900
2022-09-10T13:43:23.619Z,19.900
2022-09-10T13:44:23.039Z,19.900
2022-09-10T13:45:33.514Z,19.900
2022-09-10T13:46:26.920Z,19.900
2022-09-10T13:47:21.292Z,20.000
2022-09-10T13:48:34.814Z,20.000
2022-09-10T13:50:26.232Z,20.100
2022-09-10T13:51:28.995Z,20.200
2022-09-10T13:52:29.333Z,20.200
2022-09-10T13:53:22.031Z,20.200
2022-09-10T13:54:24.874Z,20.300
2022-09-10T13:55:23.921Z,20.300
2022-09-10T13:56:31.552Z,20.300
2022-09-10T13:58:28.816Z,20.300
2022-09-10T13:59:28.865Z,20.300
2022-09-10T14:00:25.293Z,20.300
2022-09-10T14:01:25.970Z,20.400
2022-09-10T14:02:26.179Z,20.400
2022-09-10T14:03:30.936Z,20.400
2022-09-10T14:04:23.512Z,20.400
2022-09-10T14:05:23.091Z,20.500
2022-09-10T14:06:32.506Z,20.500
2022-09-10T14:07:26.457Z,20.600
2022-09-10T14:08:21.306Z,20.700
2022-09-10T14:09:27.178Z,20.700
2022-09-10T14:10:26.689Z,20.700
2022-09-10T14:11:23.147Z,20.700
2022-09-10T14:12:24.531Z,20.800
2022-09-10T14:13:22.065Z,20.800
2022-09-10T14:14:26.002Z,20.800
2022-09-10T14:15:36.542Z,20.800
2022-09-10T14:16:33.085Z,20.900
2022-09-10T14:18:23.147Z,21.000
2022-09-10T14:19:28.706Z,21.000
2022-09-10T14:20:21.613Z,21.000
2022-09-10T14:21:22.840Z,21.100
2022-09-10T14:22:22.453Z,21.200
2022-09-10T14:23:38.010Z,21.250
2022-09-10T14:24:23.897Z,21.300
2022-09-10T14:25:23.535Z,21.300
2022-09-10T14:26:33.419Z,21.400
2022-09-10T14:27:31.080Z,21.400
2022-09-10T14:28:25.592Z,21.400
2022-09-10T14:29:21.139Z,21.500
2022-09-10T14:30:32.392Z,21.500
2022-09-10T14:31:23.470Z,21.500
2022-09-10T14:32:23.512Z,21.500
2022-09-10T14:33:33.333Z,21.500
2022-09-10T14:34:32.955Z,21.600
2022-09-10T14:35:25.401Z,21.600
2022-09-10T14:36:39.047Z,21.600
2022-09-10T14:37:31.382Z,21.700
2022-09-10T14:38:21.669Z,21.700
2022-09-10T14:39:24.573Z,21.700
2022-09-10T14:40:33.215Z,21.800
2022-09-10T14:41:33.161Z,21.800
2022-09-10T14:42:21.376Z,21.800
2022-09-10T14:43:22.888Z,21.800
2022-09-10T14:44:26.671Z,21.900
2022-09-10T14:45:33.196Z,21.900
2022-09-10T14:46:23.527Z,21.900
2022-09-10T14:47:33.207Z,22.000
2022-09-10T14:48:33.033Z,22.000
2022-09-10T14:49:26.380Z,22.000
2022-09-10T14:50:26.018Z,22.000
2022-09-10T14:52:27.419Z,22.000
2022-09-10T14:53:23.649Z,21.950
2022-09-10T14:54:33.712Z,21.900
2022-09-10T14:55:24.691Z,21.900
2022-09-10T14:56:27.716Z,21.900
2022-09-10T14:57:22.865Z,21.800
2022-09-10T14:58:21.149Z,21.800
2022-09-10T14:59:27.338Z,21.800
2022-09-10T15:00:23.375Z,21.700
2022-09-10T15:01:32.756Z,21.700
2022-09-10T15:02:33.119Z,21.700
2022-09-10T15:03:26.622Z,21.700
2022-09-10T15:04:21.641Z,21.700
2022-09-10T15:05:28.059Z,21.700
2022-09-10T15:06:26.170Z,21.700
2022-09-10T15:07:24.718Z,21.700
2022-09-10T15:08:36.103Z,21.700
2022-09-10T15:09:29.118Z,21.700
2022-09-10T15:10:27.487Z,21.700
2022-09-10T15:11:21.204Z,21.700
2022-09-10T15:12:33.155Z,21.700
2022-09-10T15:14:24.735Z,21.600
2022-09-10T15:15:33.534Z,21.600
2022-09-10T15:16:31.974Z,21.600
2022-09-10T15:17:25.144Z,21.600
2022-09-10T15:18:25.394Z,21.600
2022-09-10T15:19:36.992Z,21.600
2022-09-10T15:20:29.442Z,21.600
2022-09-10T15:21:21.984Z,21.700
2022-09-10T15:22:35.135Z,21.700
2022-09-10T15:23:22.719Z,21.700
2022-09-10T15:24:26.968Z,21.700
2022-09-10T15:25:23.491Z,21.700
2022-09-10T15:26:31.389Z,21.700
2022-09-10T15:27:30.859Z,21.700
2022-09-10T15:29:20.960Z,21.700
2022-09-10T15:30:30.555Z,21.700
2022-09-10T15:31:31.997Z,21.650
2022-09-10T15:32:23.250Z,21.600
2022-09-10T15:33:31.458Z,21.600
2022-09-10T15:34:19.726Z,21.600
2022-09-10T15:35:30.309Z,21.600
2022-09-10T15:37:33.318Z,21.600